Time;durP1;ratioP1;P1;durP2;ratioP2;P2;SDS_P1;SDS_P2;PMS_P1;PMS_P2;Temp;Humidity;BMP_temperature;BMP_pressure;BME280_temperature;BME280_humidity;BME280_pressure;Samples;Min_cycle;Max_cycle;Signal;HPM_P1;HPM_P2
2022/06/26 00:00:45;;;;;;;3.35;3.05;;;18.90;99.90;;;-144.05;62.12;125687.94;6191182;23;20382;-87
2022/06/26 00:03:12;;;;;;;6.53;3.13;;;19.00;99.90;;;-144.05;61.45;125687.94;6192729;23;20088;-87
2022/06/26 00:05:40;;;;;;;4.72;2.95;;;19.00;99.90;;;-144.05;60.58;125687.94;6189785;23;20041;-89
2022/06/26 00:08:07;;;;;;;5.93;3.10;;;19.10;99.90;;;-144.05;59.78;125687.94;6190386;23;20009;-91
2022/06/26 00:10:33;;;;;;;3.83;3.28;;;19.20;99.90;;;-144.05;59.26;125687.94;6191282;23;20012;-89
2022/06/26 00:12:59;;;;;;;3.70;2.90;;;19.30;99.90;;;-144.05;58.91;125687.94;6196399;23;20029;-87
2022/06/26 00:15:25;;;;;;;7.15;3.42;;;19.40;99.90;;;-144.05;61.48;125687.94;6197008;23;20005;-89
2022/06/26 00:17:51;;;;;;;6.90;3.35;;;19.40;99.90;;;-144.05;60.70;125687.94;6199181;23;20005;-90
2022/06/26 00:20:20;;;;;;;4.10;3.13;;;19.30;99.90;;;-144.05;59.56;125687.94;6201968;23;20028;-88
2022/06/26 00:22:47;;;;;;;3.10;2.78;;;19.40;99.90;;;-144.05;58.50;125687.94;6194563;23;20047;-87
2022/06/26 00:25:13;;;;;;;5.30;2.85;;;19.60;99.90;;;-144.05;57.46;125687.94;6193194;23;20028;-90
2022/06/26 00:27:40;;;;;;;3.53;2.65;;;19.90;99.90;;;-144.05;56.47;125687.94;6194381;23;20067;-90
2022/06/26 00:30:07;;;;;;;6.35;3.25;;;20.10;99.90;;;-144.05;57.43;125687.94;6187641;23;20473;-90
2022/06/26 00:32:33;;;;;;;5.97;3.25;;;20.30;99.90;;;-144.05;59.04;125687.94;6189845;23;20001;-92
2022/06/26 00:34:58;;;;;;;6.63;3.03;;;20.30;99.90;;;-144.05;59.58;125687.94;6191546;23;20009;-88
2022/06/26 00:37:24;;;;;;;6.07;3.75;;;20.20;99.90;;;-144.05;61.58;125687.94;6190518;23;20001;-89
2022/06/26 00:39:50;;;;;;;6.28;4.95;;;20.10;99.90;;;-144.05;64.43;125687.94;6192033;23;20029;-88
2022/06/26 00:42:17;;;;;;;7.95;5.53;;;19.90;99.90;;;-144.05;65.86;125687.94;6191302;23;20438;-89
2022/06/26 00:44:43;;;;;;;10.07;6.55;;;19.80;99.90;;;-144.05;67.79;125687.94;6192718;23;20032;-89
2022/06/26 00:47:09;;;;;;;8.75;7.28;;;19.60;99.90;;;-144.05;69.87;125687.94;6191786;23;20020;-88
2022/06/26 00:49:35;;;;;;;11.90;8.85;;;19.40;99.90;;;-144.05;72.21;125687.94;6192031;23;20005;-88
2022/06/26 00:52:02;;;;;;;14.18;9.43;;;19.30;99.90;;;-144.05;73.50;125687.94;6190901;23;20012;-87
2022/06/26 00:54:30;;;;;;;13.30;10.43;;;19.10;99.90;;;-144.05;73.62;125687.94;6191743;23;20033;-87
2022/06/26 00:56:57;;;;;;;13.77;11.10;;;19.00;99.90;;;-144.05;74.43;125687.94;6191428;23;20371;-89
2022/06/26 00:59:25;;;;;;;14.00;9.52;;;18.90;99.90;;;-144.05;74.82;125687.94;6190171;23;20012;-89
2022/06/26 01:01:52;;;;;;;13.82;9.80;;;18.80;99.90;;;-144.05;74.45;125687.94;6191142;23;20005;-89
2022/06/26 01:04:18;;;;;;;16.30;11.50;;;18.80;99.90;;;-144.05;75.19;125687.94;6192223;23;20017;-89
2022/06/26 01:06:47;;;;;;;12.95;10.02;;;18.70;99.90;;;-144.05;74.78;125687.94;6192338;23;20016;-90
2022/06/26 01:09:13;;;;;;;11.20;9.15;;;18.70;99.90;;;-144.05;74.87;125687.94;6218074;23;20009;-88
2022/06/26 01:11:43;;;;;;;11.93;9.02;;;18.60;99.90;;;-144.05;75.15;125687.94;6206754;23;20064;-87
2022/06/26 01:14:11;;;;;;;9.95;8.35;;;18.60;99.90;;;-144.05;74.84;125687.94;6199938;23;20009;-91
2022/06/26 01:16:40;;;;;;;13.55;10.70;;;18.60;99.90;;;-144.05;75.51;125687.94;6190634;23;20005;-87
2022/06/26 01:19:09;;;;;;;10.85;9.18;;;18.60;99.90;;;-144.05;75.55;125687.94;6189953;23;20008;-89
2022/06/26 01:21:37;;;;;;;9.93;8.07;;;18.50;99.90;;;-144.05;75.47;125687.94;6192433;23;20004;-89
2022/06/26 01:24:05;;;;;;;11.77;8.65;;;18.50;99.90;;;-144.05;75.58;125687.94;6189469;23;20280;-89
2022/06/26 01:26:33;;;;;;;10.85;9.48;;;18.50;99.90;;;-144.05;75.95;125687.94;6208535;23;20011;-88
2022/06/26 01:28:58;;;;;;;11.05;9.80;;;18.50;99.90;;;-144.05;76.04;125687.94;6197825;23;20009;-91
2022/06/26 01:31:24;;;;;;;12.73;9.93;;;18.50;99.90;;;-144.05;76.10;125687.94;6194076;23;20043;-91
2022/06/26 01:33:51;;;;;;;11.90;10.20;;;18.50;99.90;;;-144.05;76.15;125687.94;6193200;23;20013;-89
2022/06/26 01:36:18;;;;;;;12.40;10.32;;;18.50;99.90;;;-144.05;76.57;125687.94;6193250;23;20061;-89
2022/06/26 01:38:45;;;;;;;13.43;9.57;;;18.50;99.90;;;-144.05;76.34;125687.94;6192758;23;20025;-90
2022/06/26 01:41:11;;;;;;;12.82;9.30;;;18.50;99.90;;;-144.05;76.66;125687.94;6196240;23;20415;-91
2022/06/26 01:43:38;;;;;;;11.50;8.80;;;18.50;99.90;;;-144.05;76.51;125687.94;6190711;23;20106;-88
2022/06/26 01:46:06;;;;;;;10.90;8.32;;;18.40;99.90;;;-144.05;76.71;125687.94;6194506;23;20443;-91
2022/06/26 01:48:38;;;;;;;9.52;7.22;;;18.40;99.90;;;-144.05;76.71;125687.94;6195794;23;20012;-90
2022/06/26 01:51:05;;;;;;;11.70;8.65;;;18.30;99.90;;;-144.05;76.97;125687.94;6196987;23;20062;-88
2022/06/26 01:53:32;;;;;;;7.55;6.50;;;18.30;99.90;;;-144.05;76.92;125687.94;6194965;23;20092;-89
2022/06/26 01:55:58;;;;;;;8.07;7.22;;;18.20;99.90;;;-144.05;77.28;125687.94;6196892;23;20005;-89
2022/06/26 01:58:25;;;;;;;9.52;7.38;;;18.20;99.90;;;-144.05;77.64;125687.94;6193284;23;20005;-87
2022/06/26 02:00:53;;;;;;;11.80;8.90;;;18.00;99.90;;;-144.05;78.26;125687.94;6194310;23;20005;-89
2022/06/26 02:03:22;;;;;;;10.98;7.80;;;18.00;99.90;;;-144.05;78.87;125687.94;6194618;23;20315;-90
2022/06/26 02:05:50;;;;;;;14.98;9.20;;;17.90;99.90;;;-144.05;79.17;125687.94;6193678;23;20336;-88
2022/06/26 02:08:17;;;;;;;10.07;7.85;;;17.80;99.90;;;-144.05;79.12;125687.94;6192732;23;20013;-90
2022/06/26 02:13:37;;;;;;;9.60;6.80;;;17.80;99.90;;;-144.05;79.63;125687.94;6195306;23;20016;-88
2022/06/26 02:16:11;;;;;;;10.18;7.47;;;17.80;99.90;;;-144.05;80.34;125687.94;6194497;23;20055;-89
2022/06/26 02:18:41;;;;;;;10.65;7.38;;;17.70;99.90;;;-144.05;80.50;125687.94;6196280;23;20035;-89
2022/06/26 02:21:16;;;;;;;9.48;7.50;;;17.70;99.90;;;-144.05;80.24;125687.94;6193505;23;20005;-89
2022/06/26 02:23:44;;;;;;;6.05;5.28;;;17.70;99.90;;;-144.05;80.10;125687.94;6193126;23;20012;-90
2022/06/26 02:26:11;;;;;;;12.15;6.20;;;17.60;99.90;;;-144.05;80.17;125687.94;6192669;23;20096;-89
2022/06/26 02:28:40;;;;;;;10.25;7.38;;;17.60;99.90;;;-144.05;80.73;125687.94;6192907;23;20044;-90
2022/06/26 02:31:07;;;;;;;9.93;6.57;;;17.50;99.90;;;-144.05;80.89;125687.94;6192471;23;20009;-89
2022/06/26 02:33:34;;;;;;;8.75;6.55;;;17.40;99.90;;;-144.05;81.00;125687.94;6192189;23;20013;-88
2022/06/26 02:36:03;;;;;;;10.10;6.10;;;17.40;99.90;;;-144.05;81.29;125687.94;6193502;23;20066;-89
2022/06/26 02:38:29;;;;;;;7.93;6.05;;;17.30;99.90;;;-144.05;81.71;125687.94;6190997;23;20343;-88
2022/06/26 02:40:55;;;;;;;9.95;6.97;;;17.30;99.90;;;-144.05;81.83;125687.94;6194413;23;20427;-87
2022/06/26 02:43:23;;;;;;;10.27;6.63;;;17.30;99.90;;;-144.05;82.12;125687.94;6193302;23;20020;-89
2022/06/26 02:45:54;;;;;;;11.02;8.45;;;17.20;99.90;;;-144.05;83.20;125687.94;6192708;23;20017;-90
2022/06/26 02:48:21;;;;;;;8.35;7.43;;;17.30;99.90;;;-144.05;82.81;125687.94;6192253;23;20021;-89
2022/06/26 02:50:48;;;;;;;9.25;5.97;;;17.30;99.90;;;-144.05;82.31;125687.94;6191234;23;20015;-90
2022/06/26 02:53:15;;;;;;;9.88;7.53;;;17.30;99.90;;;-144.05;82.49;125687.94;6192229;23;20013;-89
2022/06/26 02:55:42;;;;;;;9.70;6.47;;;17.30;99.90;;;-144.05;82.52;125687.94;6194373;23;20008;-88
2022/06/26 02:58:08;;;;;;;9.77;7.65;;;17.30;99.90;;;-144.05;82.62;125687.94;6194812;23;20526;-89
2022/06/26 03:00:34;;;;;;;7.57;5.38;;;17.30;99.90;;;-144.05;82.35;125687.94;6194830;23;20051;-89
2022/06/26 03:03:03;;;;;;;7.53;6.00;;;17.30;99.90;;;-144.05;82.39;125687.94;6202844;23;20009;-87
2022/06/26 03:05:31;;;;;;;7.85;5.93;;;17.30;99.90;;;-144.05;82.17;125687.94;6209598;23;20080;-89
2022/06/26 03:07:56;;;;;;;9.45;6.25;;;17.30;99.90;;;-144.05;82.11;125687.94;6194205;23;20008;-90
2022/06/26 03:10:24;;;;;;;9.95;6.30;;;17.30;99.90;;;-144.05;82.16;125687.94;6193349;23;20005;-91
2022/06/26 03:12:50;;;;;;;8.95;7.32;;;17.30;99.90;;;-144.05;82.72;125687.94;6193610;23;20015;-91
2022/06/26 03:15:18;;;;;;;8.32;6.35;;;17.40;99.90;;;-144.05;82.75;125687.94;6194482;23;20001;-88
2022/06/26 03:17:45;;;;;;;8.13;6.32;;;17.40;99.90;;;-144.05;82.54;125687.94;6195712;23;20005;-88
2022/06/26 03:20:18;;;;;;;8.60;6.03;;;17.50;99.90;;;-144.05;82.01;125687.94;6194588;23;20405;-88
2022/06/26 03:22:46;;;;;;;6.35;5.38;;;17.60;99.90;;;-144.05;81.86;125687.94;6194525;23;20005;-89
2022/06/26 03:25:14;;;;;;;6.78;4.97;;;17.60;99.90;;;-144.05;81.16;125687.94;6195267;23;20059;-87
2022/06/26 03:27:40;;;;;;;5.97;5.15;;;17.60;99.90;;;-144.05;81.14;125687.94;6193909;23;20065;-89
2022/06/26 03:30:11;;;;;;;8.30;6.15;;;17.60;99.90;;;-144.05;81.16;125687.94;6192945;23;20029;-91
2022/06/26 03:32:37;;;;;;;9.20;5.22;;;17.60;99.90;;;-144.05;80.79;125687.94;6191804;23;20009;-90
2022/06/26 03:35:05;;;;;;;7.72;5.28;;;17.50;99.90;;;-144.05;80.72;125687.94;6191185;23;20036;-89
2022/06/26 03:37:32;;;;;;;7.50;5.30;;;17.50;99.90;;;-144.05;80.86;125687.94;6192934;23;20005;-90
2022/06/26 03:39:58;;;;;;;5.22;4.38;;;17.40;99.90;;;-144.05;81.03;125687.94;6190197;23;20013;-91
2022/06/26 03:42:25;;;;;;;4.63;4.10;;;17.30;99.90;;;-144.05;81.22;125687.94;6191786;23;20079;-91
2022/06/26 03:44:51;;;;;;;5.22;3.97;;;17.40;99.90;;;-144.05;81.49;125687.94;6190304;23;20012;-90
2022/06/26 03:47:17;;;;;;;5.75;4.43;;;17.20;99.90;;;-144.05;81.87;125687.94;6215330;23;20435;-89
2022/06/26 03:49:43;;;;;;;7.68;4.72;;;17.20;99.90;;;-144.05;81.80;125687.94;6190979;23;20020;-90
2022/06/26 03:52:09;;;;;;;7.70;5.53;;;17.20;99.90;;;-144.05;82.17;125687.94;6191619;23;20342;-87
2022/06/26 03:54:35;;;;;;;6.63;5.05;;;17.20;99.90;;;-144.05;82.29;125687.94;6192264;23;20016;-90
2022/06/26 03:57:02;;;;;;;5.75;5.07;;;17.20;99.90;;;-144.05;82.30;125687.94;6190688;23;20060;-88
2022/06/26 03:59:29;;;;;;;6.45;5.43;;;17.10;99.90;;;-144.05;82.73;125687.94;6189056;23;20439;-89
2022/06/26 04:01:55;;;;;;;7.10;5.63;;;17.10;99.90;;;-144.05;82.65;125687.94;6194741;23;20072;-88
2022/06/26 04:04:21;;;;;;;7.72;5.95;;;17.10;99.90;;;-144.05;83.02;125687.94;6200647;23;20087;-88
2022/06/26 04:06:47;;;;;;;6.55;4.90;;;17.10;99.90;;;-144.05;82.92;125687.94;6201220;23;20028;-88
2022/06/26 04:09:13;;;;;;;6.88;5.43;;;17.20;99.90;;;-144.05;83.01;125687.94;6200996;23;20016;-90
2022/06/26 04:11:40;;;;;;;7.38;6.57;;;17.20;99.90;;;-144.05;83.21;125687.94;6202324;23;20009;-90
2022/06/26 04:14:07;;;;;;;10.57;8.20;;;17.20;99.90;;;-144.05;83.26;125687.94;6192890;23;20009;-90
2022/06/26 04:16:34;;;;;;;11.15;9.13;;;17.30;99.90;;;-144.05;83.28;125687.94;6190237;23;20013;-92
2022/06/26 04:19:01;;;;;;;15.15;11.05;;;17.30;99.90;;;-144.05;83.47;125687.94;6191014;23;20447;-89
2022/06/26 04:21:26;;;;;;;9.85;8.10;;;17.40;99.90;;;-144.05;83.16;125687.94;6190016;23;20011;-91
2022/06/26 04:23:52;;;;;;;10.40;8.52;;;17.40;99.90;;;-144.05;82.97;125687.94;6190582;23;20056;-90
2022/06/26 04:26:20;;;;;;;9.98;8.32;;;17.30;99.90;;;-144.05;82.99;125687.94;6189891;23;20008;-92
2022/06/26 04:28:46;;;;;;;11.20;9.32;;;17.30;99.90;;;-144.05;82.87;125687.94;6192407;23;20051;-92
2022/06/26 04:31:12;;;;;;;11.23;10.00;;;17.30;99.90;;;-144.05;83.07;125687.94;6190305;23;20012;-88
2022/06/26 04:33:38;;;;;;;13.90;11.32;;;17.40;99.90;;;-144.05;83.25;125687.94;6189586;23;20013;-92
2022/06/26 04:36:04;;;;;;;12.93;10.60;;;17.50;99.90;;;-144.05;82.79;125687.94;6190765;23;20016;-91
2022/06/26 04:38:30;;;;;;;13.23;9.98;;;17.60;99.90;;;-144.05;82.36;125687.94;6189852;23;20091;-90
2022/06/26 04:40:56;;;;;;;14.25;10.18;;;17.80;99.90;;;-144.05;81.76;125687.94;6191668;23;20001;-89
2022/06/26 04:43:22;;;;;;;13.18;9.75;;;17.90;99.90;;;-144.05;81.17;125687.94;6192536;23;20043;-90
2022/06/26 04:45:48;;;;;;;10.27;8.73;;;18.00;99.90;;;-144.05;80.39;125687.94;6192404;23;20040;-89
2022/06/26 04:48:14;;;;;;;11.15;9.57;;;18.20;99.90;;;-144.05;79.92;125687.94;6191391;23;20016;-89
2022/06/26 04:50:40;;;;;;;9.63;7.97;;;18.30;99.90;;;-144.05;78.88;125687.94;6192396;23;20005;-93
2022/06/26 04:53:07;;;;;;;11.00;8.98;;;18.40;99.90;;;-144.05;77.81;125687.94;6192826;23;20009;-89
2022/06/26 04:55:33;;;;;;;10.40;8.30;;;18.50;99.90;;;-144.05;77.10;125687.94;6199700;23;20031;-85
2022/06/26 04:57:59;;;;;;;9.82;8.00;;;18.60;99.90;;;-144.05;76.12;125687.94;6210844;23;20001;-89
2022/06/26 05:00:27;;;;;;;7.03;6.15;;;18.60;99.90;;;-144.05;75.77;125687.94;6216364;23;20376;-90
2022/06/26 05:02:53;;;;;;;8.05;7.13;;;18.60;99.90;;;-144.05;75.82;125687.94;6190597;23;20376;-90
2022/06/26 05:05:19;;;;;;;7.88;5.80;;;18.60;99.90;;;-144.05;75.79;125687.94;6189552;23;20001;-88
2022/06/26 05:07:45;;;;;;;8.98;6.22;;;18.60;99.90;;;-144.05;75.05;125687.94;6191332;23;20040;-90
2022/06/26 05:10:11;;;;;;;5.50;5.00;;;18.70;99.90;;;-144.05;74.34;125687.94;6191127;23;20005;-90
2022/06/26 05:12:37;;;;;;;9.02;6.15;;;18.80;99.90;;;-144.05;73.64;125687.94;6190162;23;20090;-91
2022/06/26 05:15:05;;;;;;;7.70;5.40;;;18.80;99.90;;;-144.05;73.43;125687.94;6190878;23;20009;-91
2022/06/26 05:17:30;;;;;;;6.55;5.57;;;18.80;99.90;;;-144.05;73.25;125687.94;6215242;23;20001;-89
2022/06/26 05:19:57;;;;;;;5.63;5.00;;;19.00;99.90;;;-144.05;71.75;125687.94;6188646;23;20052;-90
2022/06/26 05:22:23;;;;;;;5.32;4.30;;;19.30;99.90;;;-144.05;70.90;125687.94;6188078;23;20009;-90
2022/06/26 05:24:50;;;;;;;8.20;4.93;;;19.60;99.90;;;-144.05;68.40;125687.94;6189130;23;20445;-91
2022/06/26 05:27:16;;;;;;;5.25;4.18;;;20.00;99.90;;;-144.05;66.53;125687.94;6188860;23;20052;-89
2022/06/26 05:29:43;;;;;;;5.00;3.88;;;20.40;99.90;;;-144.05;63.84;125687.94;6190128;23;20009;-90
2022/06/26 05:32:09;;;;;;;6.18;4.05;;;20.80;99.90;;;-144.05;63.84;125687.94;6214444;23;20032;-93
2022/06/26 05:34:35;;;;;;;5.70;4.03;;;21.00;99.90;;;-144.05;62.30;125687.94;6189725;23;20101;-89
2022/06/26 05:37:03;;;;;;;5.32;3.03;;;21.20;99.90;;;-144.05;60.70;125687.94;6190109;23;20037;-90
2022/06/26 05:39:29;;;;;;;3.30;2.80;;;21.40;99.90;;;-144.05;59.45;125687.94;6190205;23;20012;-89
2022/06/26 05:41:57;;;;;;;3.10;2.33;;;21.50;99.90;;;-144.05;59.65;125687.94;6190947;23;20450;-89
2022/06/26 05:44:23;;;;;;;5.60;2.90;;;21.50;99.90;;;-144.05;59.50;125687.94;6191699;23;20011;-89
2022/06/26 05:46:49;;;;;;;5.65;3.45;;;21.40;99.90;;;-144.05;61.40;125687.94;6216183;23;20044;-91
2022/06/26 05:49:15;;;;;;;4.07;3.00;;;21.00;99.90;;;-144.05;62.31;125687.94;6192276;23;20015;-88
2022/06/26 05:51:41;;;;;;;8.85;3.65;;;20.70;99.90;;;-144.05;62.82;125687.94;6190806;23;20016;-90
2022/06/26 05:54:07;;;;;;;4.82;3.45;;;20.60;99.90;;;-144.05;63.23;125687.94;6189595;23;20009;-89
2022/06/26 05:56:34;;;;;;;7.00;4.47;;;20.40;99.90;;;-144.05;64.13;125687.94;6189885;23;20013;-89
2022/06/26 05:59:00;;;;;;;5.63;3.83;;;20.20;99.90;;;-144.05;64.66;125687.94;6192271;23;20001;-89
2022/06/26 06:01:26;;;;;;;5.95;3.80;;;20.00;99.90;;;-144.05;64.92;125687.94;6215630;23;20297;-91
2022/06/26 06:03:52;;;;;;;4.90;3.67;;;20.00;99.90;;;-144.05;64.13;125687.94;6190683;23;20011;-91
2022/06/26 06:06:18;;;;;;;4.90;3.90;;;20.30;99.90;;;-144.05;61.46;125687.94;6192878;23;20040;-90
2022/06/26 06:08:45;;;;;;;8.27;4.50;;;20.80;99.90;;;-144.05;60.18;125687.94;6191674;23;20009;-90
2022/06/26 06:11:12;;;;;;;6.93;4.28;;;21.20;99.90;;;-144.05;60.03;125687.94;6190571;23;20009;-91
2022/06/26 06:13:39;;;;;;;5.50;3.80;;;21.10;99.90;;;-144.05;60.55;125687.94;6189746;23;20013;-91
2022/06/26 06:16:06;;;;;;;5.85;3.78;;;21.10;99.90;;;-144.05;60.48;125687.94;6190906;23;20016;-91
2022/06/26 06:18:33;;;;;;;3.25;2.95;;;21.00;99.90;;;-144.05;61.25;125687.94;6190561;23;20335;-90
2022/06/26 06:20:59;;;;;;;3.88;3.47;;;20.80;99.90;;;-144.05;62.24;125687.94;6191010;23;20119;-91
2022/06/26 06:23:25;;;;;;;5.55;4.50;;;20.60;99.90;;;-144.05;62.82;125687.94;6188863;23;20043;-90
2022/06/26 06:25:51;;;;;;;4.72;3.33;;;20.50;99.90;;;-144.05;63.55;125687.94;6188897;23;20013;-89
2022/06/26 06:28:18;;;;;;;4.18;3.78;;;20.30;99.90;;;-144.05;64.20;125687.94;6189086;23;20335;-88
2022/06/26 06:30:46;;;;;;;6.30;4.35;;;20.20;99.90;;;-144.05;65.32;125687.94;6188861;23;20009;-89
2022/06/26 06:33:12;;;;;;;6.22;4.30;;;20.00;99.90;;;-144.05;66.16;125687.94;6213803;23;20338;-87
2022/06/26 06:35:38;;;;;;;6.38;4.05;;;19.90;99.90;;;-144.05;66.65;125687.94;6189086;23;20032;-89
2022/06/26 06:38:04;;;;;;;4.85;3.65;;;19.70;99.90;;;-144.05;66.70;125687.94;6189041;23;20005;-89
2022/06/26 06:40:31;;;;;;;4.63;3.85;;;19.60;99.90;;;-144.05;66.29;125687.94;6190901;23;20519;-88
2022/06/26 06:42:57;;;;;;;4.78;3.28;;;19.50;99.90;;;-144.05;66.30;125687.94;6191283;23;20118;-90
2022/06/26 06:45:23;;;;;;;4.57;3.03;;;19.50;99.90;;;-144.05;66.65;125687.94;6189379;23;20044;-88
2022/06/26 06:47:49;;;;;;;5.22;3.63;;;19.40;99.90;;;-144.05;66.75;125687.94;6198970;23;20089;-89
2022/06/26 06:50:15;;;;;;;4.95;3.30;;;19.40;99.90;;;-144.05;66.31;125687.94;6206666;23;20072;-90
2022/06/26 06:52:41;;;;;;;4.53;3.10;;;19.40;99.90;;;-144.05;66.94;125687.94;6192511;23;20009;-90
2022/06/26 06:55:07;;;;;;;5.30;3.60;;;19.30;99.90;;;-144.05;67.56;125687.94;6189163;23;20009;-91
2022/06/26 06:57:33;;;;;;;6.22;3.95;;;19.30;99.90;;;-144.05;67.12;125687.94;6189436;23;20035;-91
2022/06/26 07:00:01;;;;;;;6.85;3.50;;;19.20;99.90;;;-144.05;66.94;125687.94;6190646;23;20450;-89
2022/06/26 07:02:27;;;;;;;6.15;3.47;;;19.20;99.90;;;-144.05;66.91;125687.94;6193551;23;20012;-89
2022/06/26 07:04:53;;;;;;;5.35;3.03;;;19.30;99.90;;;-144.05;67.20;125687.94;6193993;23;20009;-90
2022/06/26 07:07:19;;;;;;;4.25;3.00;;;19.30;99.90;;;-144.05;65.90;125687.94;6193422;23;20063;-89
2022/06/26 07:09:46;;;;;;;4.00;2.80;;;19.40;99.90;;;-144.05;65.58;125687.94;6195172;23;19997;-88
2022/06/26 07:12:12;;;;;;;6.40;3.30;;;19.60;99.90;;;-144.05;63.97;125687.94;6194479;23;20012;-88
2022/06/26 07:14:38;;;;;;;5.00;3.40;;;19.70;99.90;;;-144.05;64.85;125687.94;6195743;23;20459;-87
2022/06/26 07:17:05;;;;;;;7.57;3.67;;;19.60;99.90;;;-144.05;64.56;125687.94;6193997;23;20032;-90
2022/06/26 07:19:31;;;;;;;5.80;4.38;;;19.50;99.90;;;-144.05;63.71;125687.94;6201963;23;20076;-91
2022/06/26 07:22:00;;;;;;;5.75;4.20;;;19.40;99.90;;;-144.05;63.66;125687.94;6196754;23;20024;-90
2022/06/26 07:24:27;;;;;;;7.35;4.45;;;19.40;99.90;;;-144.05;63.76;125687.94;6203069;23;20044;-91
2022/06/26 07:26:53;;;;;;;7.47;5.07;;;19.40;99.90;;;-144.05;63.99;125687.94;6198536;23;20013;-90
2022/06/26 07:29:19;;;;;;;9.35;5.20;;;19.40;99.90;;;-144.05;64.94;125687.94;6198896;23;20020;-90
2022/06/26 07:31:46;;;;;;;7.00;5.20;;;19.40;99.90;;;-144.05;65.09;125687.94;6197166;23;20021;-90
2022/06/26 07:34:13;;;;;;;6.68;5.97;;;19.30;99.90;;;-144.05;65.88;125687.94;6197780;23;20028;-89
2022/06/26 07:36:48;;;;;;;7.15;5.10;;;19.20;99.90;;;-144.05;65.94;125687.94;6200133;23;20009;-89
2022/06/26 07:39:20;;;;;;;6.40;4.45;;;19.30;99.90;;;-144.05;65.66;125687.94;6198117;23;20133;-84
2022/06/26 07:41:49;;;;;;;5.38;4.53;;;19.40;99.90;;;-144.05;64.46;125687.94;6191942;23;20315;-84
2022/06/26 07:44:15;;;;;;;6.60;3.72;;;19.60;99.90;;;-144.05;64.79;125687.94;6193200;23;20008;-87
2022/06/26 07:46:46;;;;;;;3.83;2.95;;;19.70;99.90;;;-144.05;62.25;125687.94;6199425;23;20063;-89
2022/06/26 07:49:12;;;;;;;3.10;2.60;;;20.10;99.90;;;-144.05;58.95;125687.94;6207888;23;20043;-86
2022/06/26 07:51:40;;;;;;;5.70;2.65;;;21.00;99.90;;;-144.05;55.11;125687.94;6194359;23;20013;-87
2022/06/26 07:54:07;;;;;;;3.10;2.30;;;22.00;99.90;;;-144.05;52.61;125687.94;6194013;23;20005;-88
2022/06/26 07:56:34;;;;;;;3.70;1.98;;;22.80;99.90;;;-144.05;50.65;125687.94;6191547;23;20067;-89
2022/06/26 07:59:00;;;;;;;3.58;1.85;;;23.40;99.90;;;-144.05;48.97;125687.94;6189796;23;20175;-88
2022/06/26 08:01:29;;;;;;;3.72;1.92;;;23.90;99.90;;;-144.05;46.86;125687.94;6193095;23;20427;-87
2022/06/26 08:03:55;;;;;;;4.45;1.60;;;24.20;99.90;;;-144.05;46.61;125687.94;6197746;23;20009;-88
2022/06/26 08:06:32;;;;;;;5.18;2.00;;;24.20;99.90;;;-144.05;46.88;125687.94;6189867;23;20032;-89
2022/06/26 08:08:58;;;;;;;2.45;2.25;;;24.10;99.90;;;-144.05;47.48;125687.94;6195524;23;20169;-89
2022/06/26 08:11:24;;;;;;;4.00;1.98;;;23.80;99.90;;;-144.05;46.58;125687.94;6196083;23;20036;-86
2022/06/26 08:13:50;;;;;;;3.25;2.10;;;23.70;99.90;;;-144.05;44.79;125687.94;6193243;23;20005;-85
2022/06/26 08:16:16;;;;;;;4.40;2.50;;;24.10;99.90;;;-144.05;43.79;125687.94;6195648;23;20044;-86
2022/06/26 08:18:43;;;;;;;2.95;2.38;;;25.00;99.90;;;-144.05;42.37;125687.94;6196814;23;20000;-85
2022/06/26 08:23:55;;;;;;;2.83;2.63;;;25.00;99.90;;;-144.05;42.99;125687.94;6190012;23;20028;-83
2022/06/26 08:26:22;;;;;;;3.65;3.20;;;25.10;99.90;;;-144.05;43.42;125687.94;6189993;23;20008;-86
2022/06/26 08:28:49;;;;;;;4.03;3.20;;;25.10;99.90;;;-144.05;43.95;125687.94;6189082;23;20036;-85
2022/06/26 08:31:15;;;;;;;3.25;2.75;;;24.70;99.90;;;-144.05;45.26;125687.94;6191898;23;20067;-87
2022/06/26 08:33:41;;;;;;;4.70;3.22;;;24.30;99.90;;;-144.05;45.78;125687.94;6190135;23;20047;-88
2022/06/26 08:36:07;;;;;;;4.93;3.15;;;24.00;99.90;;;-144.05;47.03;125687.94;6193129;23;20046;-85
2022/06/26 08:38:34;;;;;;;2.92;2.15;;;23.60;99.90;;;-144.05;46.92;125687.94;6189313;23;20416;-86
2022/06/26 08:41:01;;;;;;;3.97;1.73;;;23.40;99.90;;;-144.05;45.73;125687.94;6205902;23;20343;-84
2022/06/26 08:43:28;;;;;;;2.13;1.52;;;23.10;99.90;;;-144.05;45.25;125687.94;6192668;23;20096;-86
2022/06/26 08:45:54;;;;;;;2.55;1.85;;;23.10;99.90;;;-144.05;46.05;125687.94;6188183;23;20013;-88
2022/06/26 08:48:26;;;;;;;2.20;1.80;;;23.20;99.90;;;-144.05;45.33;125687.94;6187503;23;20021;-88
2022/06/26 08:50:55;;;;;;;2.10;1.60;;;23.20;99.90;;;-144.05;44.35;125687.94;6190040;23;20009;-91
2022/06/26 08:53:22;;;;;;;2.63;1.50;;;23.30;99.90;;;-144.05;44.50;125687.94;6191451;23;20015;-91
2022/06/26 08:55:49;;;;;;;2.88;1.50;;;23.40;99.90;;;-144.05;44.74;125687.94;6193187;23;20076;-92
2022/06/26 08:58:15;;;;;;;3.95;1.40;;;23.30;99.90;;;-144.05;44.56;125687.94;6213978;23;20407;-91
2022/06/26 09:00:44;;;;;;;2.28;1.30;;;23.30;99.90;;;-144.05;44.32;125687.94;6191418;23;20005;-90
2022/06/26 09:03:11;;;;;;;2.58;1.33;;;23.40;99.90;;;-144.05;44.08;125687.94;6195557;23;20036;-87
2022/06/26 09:05:37;;;;;;;5.20;1.20;;;23.40;99.90;;;-144.05;43.76;125687.94;6191373;23;20059;-91
2022/06/26 09:08:03;;;;;;;2.22;1.35;;;23.50;99.90;;;-144.05;43.85;125687.94;6196335;23;20009;-87
2022/06/26 09:10:34;;;;;;;2.97;1.13;;;23.50;99.90;;;-144.05;43.57;125687.94;6192273;23;20016;-89
2022/06/26 09:13:00;;;;;;;1.65;1.30;;;23.50;99.90;;;-144.05;43.01;125687.94;6195672;23;20037;-90
2022/06/26 09:15:28;;;;;;;3.78;1.70;;;23.60;99.90;;;-144.05;43.39;125687.94;6193516;23;20036;-88
2022/06/26 09:18:07;;;;;;;2.78;1.50;;;23.70;99.90;;;-144.05;43.42;125687.94;6191812;23;20107;-90
2022/06/26 09:20:52;;;;;;;3.05;1.70;;;23.90;99.90;;;-144.05;43.40;125687.94;6191783;23;20009;-88
2022/06/26 09:23:19;;;;;;;2.28;1.75;;;23.80;99.90;;;-144.05;44.41;125687.94;6193837;23;20077;-89
2022/06/26 09:25:47;;;;;;;5.40;1.88;;;23.30;99.90;;;-144.05;45.46;125687.94;6191371;23;20013;-88
2022/06/26 09:28:21;;;;;;;1.95;1.52;;;23.00;99.90;;;-144.05;45.75;125687.94;6192016;23;20009;-86
2022/06/26 09:30:58;;;;;;;6.82;1.85;;;22.60;99.90;;;-144.05;46.44;125687.94;6197632;23;20096;-87
2022/06/26 09:33:30;;;;;;;3.88;1.70;;;22.30;99.90;;;-144.05;47.22;125687.94;6198176;23;20005;-91
2022/06/26 09:35:59;;;;;;;3.92;1.73;;;22.00;99.90;;;-144.05;48.51;125687.94;6195902;23;20569;-91
